sensor_id;sensor_type;location;lat;lon;timestamp;temperature;humidity
47338;DHT22;33069;51.970;5.892;2022-11-03T00:01:34;11.40;74.80
47338;DHT22;33069;51.970;5.892;2022-11-03T00:04:02;11.50;74.30
47338;DHT22;33069;51.970;5.892;2022-11-03T00:06:28;11.40;74.60
47338;DHT22;33069;51.970;5.892;2022-11-03T00:08:57;11.40;74.70
47338;DHT22;33069;51.970;5.892;2022-11-03T00:11:23;11.30;75.10
47338;DHT22;33069;51.970;5.892;2022-11-03T00:13:49;11.30;75.20
47338;DHT22;33069;51.970;5.892;2022-11-03T00:16:14;11.40;75.20
47338;DHT22;33069;51.970;5.892;2022-11-03T00:18:40;11.40;75.30
47338;DHT22;33069;51.970;5.892;2022-11-03T00:21:08;11.30;75.30
47338;DHT22;33069;51.970;5.892;2022-11-03T00:23:36;11.30;75.60
47338;DHT22;33069;51.970;5.892;2022-11-03T00:26:08;11.50;75.30
47338;DHT22;33069;51.970;5.892;2022-11-03T00:28:35;11.40;75.10
47338;DHT22;33069;51.970;5.892;2022-11-03T00:31:06;11.40;75.40
47338;DHT22;33069;51.970;5.892;2022-11-03T00:33:32;11.50;74.90
47338;DHT22;33069;51.970;5.892;2022-11-03T00:36:02;11.50;74.90
47338;DHT22;33069;51.970;5.892;2022-11-03T00:38:28;11.40;75.10
47338;DHT22;33069;51.970;5.892;2022-11-03T00:41:01;11.50;75.10
47338;DHT22;33069;51.970;5.892;2022-11-03T00:43:29;11.50;75.20
47338;DHT22;33069;51.970;5.892;2022-11-03T00:45:55;11.50;75.10
47338;DHT22;33069;51.970;5.892;2022-11-03T00:48:21;11.40;75.10
47338;DHT22;33069;51.970;5.892;2022-11-03T00:51:07;11.50;75.10
47338;DHT22;33069;51.970;5.892;2022-11-03T00:53:35;11.40;75.30
47338;DHT22;33069;51.970;5.892;2022-11-03T00:56:03;11.60;74.90
47338;DHT22;33069;51.970;5.892;2022-11-03T00:58:28;11.60;75.00
47338;DHT22;33069;51.970;5.892;2022-11-03T01:01:03;11.50;74.80
47338;DHT22;33069;51.970;5.892;2022-11-03T01:03:30;11.50;74.90
47338;DHT22;33069;51.970;5.892;2022-11-03T01:05:56;11.50;74.80
47338;DHT22;33069;51.970;5.892;2022-11-03T01:08:40;11.50;74.80
47338;DHT22;33069;51.970;5.892;2022-11-03T01:11:18;11.50;74.70
47338;DHT22;33069;51.970;5.892;2022-11-03T01:14:03;11.60;74.80
47338;DHT22;33069;51.970;5.892;2022-11-03T01:16:29;11.50;74.80
47338;DHT22;33069;51.970;5.892;2022-11-03T01:18:55;11.50;74.80
47338;DHT22;33069;51.970;5.892;2022-11-03T01:21:21;11.40;75.00
47338;DHT22;33069;51.970;5.892;2022-11-03T01:23:47;11.30;75.30
47338;DHT22;33069;51.970;5.892;2022-11-03T01:26:13;11.30;75.70
47338;DHT22;33069;51.970;5.892;2022-11-03T01:28:41;11.20;76.00
47338;DHT22;33069;51.970;5.892;2022-11-03T01:31:18;11.10;76.50
47338;DHT22;33069;51.970;5.892;2022-11-03T01:33:45;11.10;76.90
47338;DHT22;33069;51.970;5.892;2022-11-03T01:36:11;11.00;77.20
47338;DHT22;33069;51.970;5.892;2022-11-03T01:38:38;10.90;77.40
47338;DHT22;33069;51.970;5.892;2022-11-03T01:41:07;10.80;77.90
47338;DHT22;33069;51.970;5.892;2022-11-03T01:43:33;10.80;77.90
47338;DHT22;33069;51.970;5.892;2022-11-03T01:46:05;10.80;78.00
47338;DHT22;33069;51.970;5.892;2022-11-03T01:48:34;10.80;78.40
47338;DHT22;33069;51.970;5.892;2022-11-03T01:51:02;10.70;78.60
47338;DHT22;33069;51.970;5.892;2022-11-03T01:53:29;10.70;78.80
47338;DHT22;33069;51.970;5.892;2022-11-03T01:55:55;10.70;79.10
47338;DHT22;33069;51.970;5.892;2022-11-03T01:58:27;10.60;79.20
47338;DHT22;33069;51.970;5.892;2022-11-03T02:00:55;10.60;79.30
47338;DHT22;33069;51.970;5.892;2022-11-03T02:03:23;10.60;79.50
47338;DHT22;33069;51.970;5.892;2022-11-03T02:05:50;10.70;79.50
47338;DHT22;33069;51.970;5.892;2022-11-03T02:08:35;10.70;79.40
47338;DHT22;33069;51.970;5.892;2022-11-03T02:11:02;10.60;79.50
47338;DHT22;33069;51.970;5.892;2022-11-03T02:13:47;10.50;79.80
47338;DHT22;33069;51.970;5.892;2022-11-03T02:16:13;10.50;80.10
47338;DHT22;33069;51.970;5.892;2022-11-03T02:18:40;10.40;80.10
47338;DHT22;33069;51.970;5.892;2022-11-03T02:21:27;10.50;80.20
47338;DHT22;33069;51.970;5.892;2022-11-03T02:24:09;10.50;80.20
47338;DHT22;33069;51.970;5.892;2022-11-03T02:26:37;10.40;80.30
47338;DHT22;33069;51.970;5.892;2022-11-03T02:29:03;10.30;80.40
47338;DHT22;33069;51.970;5.892;2022-11-03T02:31:40;10.40;80.60
47338;DHT22;33069;51.970;5.892;2022-11-03T02:34:38;10.30;80.70
47338;DHT22;33069;51.970;5.892;2022-11-03T02:37:17;10.40;81.10
47338;DHT22;33069;51.970;5.892;2022-11-03T02:39:56;10.30;80.40
47338;DHT22;33069;51.970;5.892;2022-11-03T02:42:25;10.30;80.80
47338;DHT22;33069;51.970;5.892;2022-11-03T02:44:52;10.30;80.80
47338;DHT22;33069;51.970;5.892;2022-11-03T02:47:20;10.30;80.90
47338;DHT22;33069;51.970;5.892;2022-11-03T02:49:48;10.30;80.90
47338;DHT22;33069;51.970;5.892;2022-11-03T02:52:35;10.30;81.10
47338;DHT22;33069;51.970;5.892;2022-11-03T02:55:10;10.30;81.10
47338;DHT22;33069;51.970;5.892;2022-11-03T02:57:54;10.40;80.80
47338;DHT22;33069;51.970;5.892;2022-11-03T03:00:21;10.30;80.90
47338;DHT22;33069;51.970;5.892;2022-11-03T03:03:07;10.30;81.10
47338;DHT22;33069;51.970;5.892;2022-11-03T03:05:36;10.30;81.00
47338;DHT22;33069;51.970;5.892;2022-11-03T03:08:06;10.40;81.10
47338;DHT22;33069;51.970;5.892;2022-11-03T03:10:38;10.40;81.20
47338;DHT22;33069;51.970;5.892;2022-11-03T03:13:06;10.40;81.00
47338;DHT22;33069;51.970;5.892;2022-11-03T03:16:25;10.50;80.80
47338;DHT22;33069;51.970;5.892;2022-11-03T03:18:48;10.50;80.60
47338;DHT22;33069;51.970;5.892;2022-11-03T03:21:20;10.40;80.40
47338;DHT22;33069;51.970;5.892;2022-11-03T03:23:56;10.40;80.80
47338;DHT22;33069;51.970;5.892;2022-11-03T03:26:29;10.40;80.80
47338;DHT22;33069;51.970;5.892;2022-11-03T03:29:35;10.30;80.90
47338;DHT22;33069;51.970;5.892;2022-11-03T03:32:06;10.30;81.10
47338;DHT22;33069;51.970;5.892;2022-11-03T03:34:33;10.30;81.00
47338;DHT22;33069;51.970;5.892;2022-11-03T03:37:03;10.30;81.30
47338;DHT22;33069;51.970;5.892;2022-11-03T03:39:32;10.30;81.20
47338;DHT22;33069;51.970;5.892;2022-11-03T03:42:00;10.30;81.30
47338;DHT22;33069;51.970;5.892;2022-11-03T03:44:27;10.40;81.20
47338;DHT22;33069;51.970;5.892;2022-11-03T03:47:08;10.30;81.10
47338;DHT22;33069;51.970;5.892;2022-11-03T03:49:34;10.30;81.30
47338;DHT22;33069;51.970;5.892;2022-11-03T03:52:00;10.30;81.30
47338;DHT22;33069;51.970;5.892;2022-11-03T03:54:28;10.30;81.50
47338;DHT22;33069;51.970;5.892;2022-11-03T03:57:02;10.40;81.20
47338;DHT22;33069;51.970;5.892;2022-11-03T03:59:29;10.40;81.10
47338;DHT22;33069;51.970;5.892;2022-11-03T04:01:54;10.40;81.10
47338;DHT22;33069;51.970;5.892;2022-11-03T04:04:20;10.40;81.10
47338;DHT22;33069;51.970;5.892;2022-11-03T04:06:46;10.40;81.10
47338;DHT22;33069;51.970;5.892;2022-11-03T04:09:12;10.50;80.80
47338;DHT22;33069;51.970;5.892;2022-11-03T04:11:38;10.50;80.90
47338;DHT22;33069;51.970;5.892;2022-11-03T04:14:22;10.60;80.80
47338;DHT22;33069;51.970;5.892;2022-11-03T04:17:18;10.60;80.70
47338;DHT22;33069;51.970;5.892;2022-11-03T04:20:05;10.70;80.30
47338;DHT22;33069;51.970;5.892;2022-11-03T04:22:52;10.80;80.20
47338;DHT22;33069;51.970;5.892;2022-11-03T04:25:18;10.90;80.00
47338;DHT22;33069;51.970;5.892;2022-11-03T04:27:44;10.90;79.90
47338;DHT22;33069;51.970;5.892;2022-11-03T04:30:16;10.90;79.90
47338;DHT22;33069;51.970;5.892;2022-11-03T04:32:45;10.90;79.90
47338;DHT22;33069;51.970;5.892;2022-11-03T04:35:20;10.90;79.80
47338;DHT22;33069;51.970;5.892;2022-11-03T04:40:43;10.90;79.80
47338;DHT22;33069;51.970;5.892;2022-11-03T04:43:13;10.90;79.60
47338;DHT22;33069;51.970;5.892;2022-11-03T04:45:39;10.90;79.60
47338;DHT22;33069;51.970;5.892;2022-11-03T04:50:38;11.00;79.80
47338;DHT22;33069;51.970;5.892;2022-11-03T04:53:09;10.90;79.60
47338;DHT22;33069;51.970;5.892;2022-11-03T04:55:41;11.00;79.60
47338;DHT22;33069;51.970;5.892;2022-11-03T04:58:21;11.00;79.70
47338;DHT22;33069;51.970;5.892;2022-11-03T05:00:51;11.10;79.50
47338;DHT22;33069;51.970;5.892;2022-11-03T05:03:22;11.10;79.40
47338;DHT22;33069;51.970;5.892;2022-11-03T05:05:48;11.00;79.60
47338;DHT22;33069;51.970;5.892;2022-11-03T05:08:16;11.00;79.60
47338;DHT22;33069;51.970;5.892;2022-11-03T05:10:43;11.10;79.80
47338;DHT22;33069;51.970;5.892;2022-11-03T05:13:39;11.20;79.50
47338;DHT22;33069;51.970;5.892;2022-11-03T05:16:05;11.20;79.50
47338;DHT22;33069;51.970;5.892;2022-11-03T05:18:39;11.10;79.50
47338;DHT22;33069;51.970;5.892;2022-11-03T05:21:09;11.10;79.60
47338;DHT22;33069;51.970;5.892;2022-11-03T05:23:39;11.20;79.80
47338;DHT22;33069;51.970;5.892;2022-11-03T05:26:10;11.20;79.30
47338;DHT22;33069;51.970;5.892;2022-11-03T05:28:41;11.20;79.50
47338;DHT22;33069;51.970;5.892;2022-11-03T05:31:22;11.20;79.60
47338;DHT22;33069;51.970;5.892;2022-11-03T05:33:50;11.30;79.50
47338;DHT22;33069;51.970;5.892;2022-11-03T05:36:20;11.20;79.40
47338;DHT22;33069;51.970;5.892;2022-11-03T05:38:47;11.30;79.50
47338;DHT22;33069;51.970;5.892;2022-11-03T05:41:22;11.30;79.60
47338;DHT22;33069;51.970;5.892;2022-11-03T05:43:54;11.40;79.60
47338;DHT22;33069;51.970;5.892;2022-11-03T05:46:21;11.40;79.40
47338;DHT22;33069;51.970;5.892;2022-11-03T05:48:47;11.50;79.30
47338;DHT22;33069;51.970;5.892;2022-11-03T05:51:35;11.40;79.30
47338;DHT22;33069;51.970;5.892;2022-11-03T05:54:04;11.50;79.60
47338;DHT22;33069;51.970;5.892;2022-11-03T05:56:31;11.50;79.50
47338;DHT22;33069;51.970;5.892;2022-11-03T05:58:59;11.40;79.50
47338;DHT22;33069;51.970;5.892;2022-11-03T06:03:59;11.30;79.60
47338;DHT22;33069;51.970;5.892;2022-11-03T06:06:51;11.30;79.60
47338;DHT22;33069;51.970;5.892;2022-11-03T06:09:22;11.20;79.90
47338;DHT22;33069;51.970;5.892;2022-11-03T06:11:55;11.20;80.20
47338;DHT22;33069;51.970;5.892;2022-11-03T06:14:23;11.00;80.20
47338;DHT22;33069;51.970;5.892;2022-11-03T06:16:52;11.10;80.20
47338;DHT22;33069;51.970;5.892;2022-11-03T06:19:24;11.10;80.20
47338;DHT22;33069;51.970;5.892;2022-11-03T06:21:54;11.00;80.40
47338;DHT22;33069;51.970;5.892;2022-11-03T06:24:24;11.10;80.30
47338;DHT22;33069;51.970;5.892;2022-11-03T06:26:51;11.00;80.40
47338;DHT22;33069;51.970;5.892;2022-11-03T06:29:19;11.10;80.50
47338;DHT22;33069;51.970;5.892;2022-11-03T06:31:48;11.10;80.50
47338;DHT22;33069;51.970;5.892;2022-11-03T06:39:48;11.10;80.20
47338;DHT22;33069;51.970;5.892;2022-11-03T06:42:19;11.20;80.30
47338;DHT22;33069;51.970;5.892;2022-11-03T06:44:47;11.20;80.00
47338;DHT22;33069;51.970;5.892;2022-11-03T06:47:24;11.10;80.20
47338;DHT22;33069;51.970;5.892;2022-11-03T06:49:58;11.00;80.50
47338;DHT22;33069;51.970;5.892;2022-11-03T06:52:36;11.10;80.70
47338;DHT22;33069;51.970;5.892;2022-11-03T06:57:38;11.10;80.80
47338;DHT22;33069;51.970;5.892;2022-11-03T07:00:34;11.10;80.80
47338;DHT22;33069;51.970;5.892;2022-11-03T07:05:41;11.30;80.50
47338;DHT22;33069;51.970;5.892;2022-11-03T07:11:29;11.30;80.50
47338;DHT22;33069;51.970;5.892;2022-11-03T07:13:58;11.30;80.60
47338;DHT22;33069;51.970;5.892;2022-11-03T07:16:31;11.40;80.60
47338;DHT22;33069;51.970;5.892;2022-11-03T07:19:12;11.40;80.50
47338;DHT22;33069;51.970;5.892;2022-11-03T07:21:50;11.40;80.40
47338;DHT22;33069;51.970;5.892;2022-11-03T07:24:26;11.40;80.60
47338;DHT22;33069;51.970;5.892;2022-11-03T07:32:40;11.50;80.40
47338;DHT22;33069;51.970;5.892;2022-11-03T07:35:35;11.50;80.20
47338;DHT22;33069;51.970;5.892;2022-11-03T07:38:11;11.60;80.20
47338;DHT22;33069;51.970;5.892;2022-11-03T07:40:37;11.70;80.20
47338;DHT22;33069;51.970;5.892;2022-11-03T07:43:22;11.70;80.00
47338;DHT22;33069;51.970;5.892;2022-11-03T07:46:02;11.70;79.90
47338;DHT22;33069;51.970;5.892;2022-11-03T07:48:41;11.80;79.80
47338;DHT22;33069;51.970;5.892;2022-11-03T07:51:14;11.80;79.80
47338;DHT22;33069;51.970;5.892;2022-11-03T07:53:43;11.90;79.80
47338;DHT22;33069;51.970;5.892;2022-11-03T07:56:25;12.00;79.50
47338;DHT22;33069;51.970;5.892;2022-11-03T07:59:15;11.90;79.40
47338;DHT22;33069;51.970;5.892;2022-11-03T08:01:48;12.00;79.30
47338;DHT22;33069;51.970;5.892;2022-11-03T08:04:22;12.00;79.10
47338;DHT22;33069;51.970;5.892;2022-11-03T08:06:48;11.90;79.30
47338;DHT22;33069;51.970;5.892;2022-11-03T08:09:14;12.00;79.30
47338;DHT22;33069;51.970;5.892;2022-11-03T08:11:40;12.20;79.20
47338;DHT22;33069;51.970;5.892;2022-11-03T08:14:06;12.20;78.70
47338;DHT22;33069;51.970;5.892;2022-11-03T08:16:31;12.20;78.80
47338;DHT22;33069;51.970;5.892;2022-11-03T08:18:57;12.20;78.70
47338;DHT22;33069;51.970;5.892;2022-11-03T08:21:23;12.20;78.80
47338;DHT22;33069;51.970;5.892;2022-11-03T08:23:49;12.30;79.00
47338;DHT22;33069;51.970;5.892;2022-11-03T08:26:15;12.40;77.90
47338;DHT22;33069;51.970;5.892;2022-11-03T08:28:41;12.30;78.10
47338;DHT22;33069;51.970;5.892;2022-11-03T08:31:07;12.30;78.20
47338;DHT22;33069;51.970;5.892;2022-11-03T08:33:33;12.30;78.10
47338;DHT22;33069;51.970;5.892;2022-11-03T08:36:01;12.30;78.40
47338;DHT22;33069;51.970;5.892;2022-11-03T08:38:28;12.30;78.40
47338;DHT22;33069;51.970;5.892;2022-11-03T08:40:54;12.30;78.20
47338;DHT22;33069;51.970;5.892;2022-11-03T08:43:20;12.50;78.00
47338;DHT22;33069;51.970;5.892;2022-11-03T08:45:46;12.50;77.80
47338;DHT22;33069;51.970;5.892;2022-11-03T08:48:21;12.50;77.90
47338;DHT22;33069;51.970;5.892;2022-11-03T08:50:47;12.50;77.70
47338;DHT22;33069;51.970;5.892;2022-11-03T08:53:15;12.50;77.50
47338;DHT22;33069;51.970;5.892;2022-11-03T08:55:41;12.50;77.50
47338;DHT22;33069;51.970;5.892;2022-11-03T08:58:07;12.50;77.50
47338;DHT22;33069;51.970;5.892;2022-11-03T09:00:33;12.70;77.30
47338;DHT22;33069;51.970;5.892;2022-11-03T09:03:00;12.70;77.20
47338;DHT22;33069;51.970;5.892;2022-11-03T09:05:26;12.80;77.00
47338;DHT22;33069;51.970;5.892;2022-11-03T09:07:52;12.80;76.50
47338;DHT22;33069;51.970;5.892;2022-11-03T09:10:18;12.70;76.40
47338;DHT22;33069;51.970;5.892;2022-11-03T09:12:43;13.00;76.20
47338;DHT22;33069;51.970;5.892;2022-11-03T09:15:10;13.00;76.00
47338;DHT22;33069;51.970;5.892;2022-11-03T09:17:36;12.90;75.90
47338;DHT22;33069;51.970;5.892;2022-11-03T09:20:03;13.00;76.20
47338;DHT22;33069;51.970;5.892;2022-11-03T09:22:29;13.00;75.90
47338;DHT22;33069;51.970;5.892;2022-11-03T09:24:54;13.00;75.70
47338;DHT22;33069;51.970;5.892;2022-11-03T09:27:20;13.00;75.50
47338;DHT22;33069;51.970;5.892;2022-11-03T09:29:46;13.10;75.40
47338;DHT22;33069;51.970;5.892;2022-11-03T09:32:12;13.10;75.70
47338;DHT22;33069;51.970;5.892;2022-11-03T09:34:37;13.20;75.30
47338;DHT22;33069;51.970;5.892;2022-11-03T09:37:03;13.30;74.90
47338;DHT22;33069;51.970;5.892;2022-11-03T09:39:29;13.30;74.60
47338;DHT22;33069;51.970;5.892;2022-11-03T09:41:55;13.40;74.80
47338;DHT22;33069;51.970;5.892;2022-11-03T09:44:23;13.50;74.50
47338;DHT22;33069;51.970;5.892;2022-11-03T09:46:49;13.60;74.10
47338;DHT22;33069;51.970;5.892;2022-11-03T09:49:16;13.70;73.70
47338;DHT22;33069;51.970;5.892;2022-11-03T09:51:44;13.70;73.10
47338;DHT22;33069;51.970;5.892;2022-11-03T09:54:15;13.80;73.20
47338;DHT22;33069;51.970;5.892;2022-11-03T09:56:42;13.90;73.00
47338;DHT22;33069;51.970;5.892;2022-11-03T09:59:22;13.80;73.10
47338;DHT22;33069;51.970;5.892;2022-11-03T10:01:50;13.90;72.80
47338;DHT22;33069;51.970;5.892;2022-11-03T10:04:27;13.90;72.30
47338;DHT22;33069;51.970;5.892;2022-11-03T10:06:56;13.80;72.30
47338;DHT22;33069;51.970;5.892;2022-11-03T10:09:23;13.70;72.40
47338;DHT22;33069;51.970;5.892;2022-11-03T10:11:52;13.70;72.80
47338;DHT22;33069;51.970;5.892;2022-11-03T10:14:19;13.70;72.90
47338;DHT22;33069;51.970;5.892;2022-11-03T10:16:55;13.70;72.70
47338;DHT22;33069;51.970;5.892;2022-11-03T10:19:23;13.80;72.60
47338;DHT22;33069;51.970;5.892;2022-11-03T10:21:50;13.80;71.80
47338;DHT22;33069;51.970;5.892;2022-11-03T10:24:16;13.90;72.40
47338;DHT22;33069;51.970;5.892;2022-11-03T10:29:30;14.00;70.90
47338;DHT22;33069;51.970;5.892;2022-11-03T10:31:58;14.00;71.50
47338;DHT22;33069;51.970;5.892;2022-11-03T10:34:36;14.00;71.40
47338;DHT22;33069;51.970;5.892;2022-11-03T10:37:24;14.00;71.40
47338;DHT22;33069;51.970;5.892;2022-11-03T10:39:54;13.90;71.20
47338;DHT22;33069;51.970;5.892;2022-11-03T10:42:29;13.90;70.70
47338;DHT22;33069;51.970;5.892;2022-11-03T10:45:15;14.10;70.30
47338;DHT22;33069;51.970;5.892;2022-11-03T10:47:41;14.00;70.40
47338;DHT22;33069;51.970;5.892;2022-11-03T10:50:25;14.00;70.10
47338;DHT22;33069;51.970;5.892;2022-11-03T10:52:51;14.10;69.50
47338;DHT22;33069;51.970;5.892;2022-11-03T10:55:18;13.90;69.70
47338;DHT22;33069;51.970;5.892;2022-11-03T10:57:45;14.10;69.50
47338;DHT22;33069;51.970;5.892;2022-11-03T11:00:18;14.00;69.40
47338;DHT22;33069;51.970;5.892;2022-11-03T11:02:45;14.30;68.70
47338;DHT22;33069;51.970;5.892;2022-11-03T11:05:14;14.20;69.00
47338;DHT22;33069;51.970;5.892;2022-11-03T11:07:43;14.20;68.90
47338;DHT22;33069;51.970;5.892;2022-11-03T11:10:21;14.10;68.90
47338;DHT22;33069;51.970;5.892;2022-11-03T11:21:01;14.20;69.40
47338;DHT22;33069;51.970;5.892;2022-11-03T11:23:47;14.30;69.30
47338;DHT22;33069;51.970;5.892;2022-11-03T11:26:33;14.40;69.20
47338;DHT22;33069;51.970;5.892;2022-11-03T11:31:38;14.60;68.40
47338;DHT22;33069;51.970;5.892;2022-11-03T11:52:55;14.70;66.90
47338;DHT22;33069;51.970;5.892;2022-11-03T11:55:38;14.70;67.00
47338;DHT22;33069;51.970;5.892;2022-11-03T11:58:16;14.80;67.00
47338;DHT22;33069;51.970;5.892;2022-11-03T12:00:55;14.90;66.60
47338;DHT22;33069;51.970;5.892;2022-11-03T12:03:28;15.00;65.90
47338;DHT22;33069;51.970;5.892;2022-11-03T12:05:54;14.90;66.60
47338;DHT22;33069;51.970;5.892;2022-11-03T12:08:25;15.00;66.40
47338;DHT22;33069;51.970;5.892;2022-11-03T12:10:57;15.00;65.50
47338;DHT22;33069;51.970;5.892;2022-11-03T12:16:07;15.40;64.80
47338;DHT22;33069;51.970;5.892;2022-11-03T12:18:42;15.40;64.90
47338;DHT22;33069;51.970;5.892;2022-11-03T12:21:11;15.20;65.00
47338;DHT22;33069;51.970;5.892;2022-11-03T12:23:45;15.20;65.40
47338;DHT22;33069;51.970;5.892;2022-11-03T12:28:52;15.20;65.60
47338;DHT22;33069;51.970;5.892;2022-11-03T12:31:18;15.40;65.00
47338;DHT22;33069;51.970;5.892;2022-11-03T12:33:43;15.30;64.90
47338;DHT22;33069;51.970;5.892;2022-11-03T12:36:09;15.20;65.30
47338;DHT22;33069;51.970;5.892;2022-11-03T12:38:35;15.10;65.50
47338;DHT22;33069;51.970;5.892;2022-11-03T12:41:01;15.20;65.40
47338;DHT22;33069;51.970;5.892;2022-11-03T12:43:48;15.10;65.70
47338;DHT22;33069;51.970;5.892;2022-11-03T12:46:15;15.20;65.40
47338;DHT22;33069;51.970;5.892;2022-11-03T12:48:42;15.30;65.50
47338;DHT22;33069;51.970;5.892;2022-11-03T12:51:22;15.40;66.00
47338;DHT22;33069;51.970;5.892;2022-11-03T12:53:50;15.30;65.20
47338;DHT22;33069;51.970;5.892;2022-11-03T12:56:17;15.30;65.20
47338;DHT22;33069;51.970;5.892;2022-11-03T12:58:43;15.40;64.90
47338;DHT22;33069;51.970;5.892;2022-11-03T13:01:08;15.40;64.70
47338;DHT22;33069;51.970;5.892;2022-11-03T13:03:35;15.30;64.90
47338;DHT22;33069;51.970;5.892;2022-11-03T13:06:03;15.40;65.30
47338;DHT22;33069;51.970;5.892;2022-11-03T13:08:30;15.40;64.90
47338;DHT22;33069;51.970;5.892;2022-11-03T13:10:56;15.40;65.30
47338;DHT22;33069;51.970;5.892;2022-11-03T13:13:22;15.30;65.50
47338;DHT22;33069;51.970;5.892;2022-11-03T13:15:48;15.40;65.40
47338;DHT22;33069;51.970;5.892;2022-11-03T13:18:14;15.50;65.70
47338;DHT22;33069;51.970;5.892;2022-11-03T13:20:39;15.50;64.70
47338;DHT22;33069;51.970;5.892;2022-11-03T13:23:06;15.50;64.30
47338;DHT22;33069;51.970;5.892;2022-11-03T13:25:32;15.50;64.40
47338;DHT22;33069;51.970;5.892;2022-11-03T13:27:57;15.50;64.30
47338;DHT22;33069;51.970;5.892;2022-11-03T13:30:25;15.60;64.40
47338;DHT22;33069;51.970;5.892;2022-11-03T13:32:51;15.60;64.10
47338;DHT22;33069;51.970;5.892;2022-11-03T13:35:17;15.60;64.20
47338;DHT22;33069;51.970;5.892;2022-11-03T13:37:43;15.50;64.10
47338;DHT22;33069;51.970;5.892;2022-11-03T13:40:11;15.60;64.10
47338;DHT22;33069;51.970;5.892;2022-11-03T13:42:37;15.60;63.70
47338;DHT22;33069;51.970;5.892;2022-11-03T13:45:04;15.50;64.20
47338;DHT22;33069;51.970;5.892;2022-11-03T13:47:30;15.60;64.60
47338;DHT22;33069;51.970;5.892;2022-11-03T13:49:56;15.70;63.30
47338;DHT22;33069;51.970;5.892;2022-11-03T13:52:22;15.50;63.80
47338;DHT22;33069;51.970;5.892;2022-11-03T13:54:49;15.50;64.00
47338;DHT22;33069;51.970;5.892;2022-11-03T13:57:17;15.50;63.90
47338;DHT22;33069;51.970;5.892;2022-11-03T13:59:43;15.50;64.30
47338;DHT22;33069;51.970;5.892;2022-11-03T14:02:09;15.50;64.50
47338;DHT22;33069;51.970;5.892;2022-11-03T14:04:35;15.40;64.80
47338;DHT22;33069;51.970;5.892;2022-11-03T14:07:03;15.40;64.60
47338;DHT22;33069;51.970;5.892;2022-11-03T14:09:29;15.40;64.80
47338;DHT22;33069;51.970;5.892;2022-11-03T14:11:55;15.30;65.00
47338;DHT22;33069;51.970;5.892;2022-11-03T14:14:39;15.30;65.00
47338;DHT22;33069;51.970;5.892;2022-11-03T14:17:04;15.30;64.80
47338;DHT22;33069;51.970;5.892;2022-11-03T14:19:30;15.40;65.20
47338;DHT22;33069;51.970;5.892;2022-11-03T14:21:56;15.20;65.50
47338;DHT22;33069;51.970;5.892;2022-11-03T14:24:21;15.30;64.80
47338;DHT22;33069;51.970;5.892;2022-11-03T14:26:47;15.20;65.20
47338;DHT22;33069;51.970;5.892;2022-11-03T14:29:13;15.20;65.80
47338;DHT22;33069;51.970;5.892;2022-11-03T14:31:39;15.10;66.00
47338;DHT22;33069;51.970;5.892;2022-11-03T14:34:04;15.00;66.00
47338;DHT22;33069;51.970;5.892;2022-11-03T14:36:30;14.90;66.20
47338;DHT22;33069;51.970;5.892;2022-11-03T14:38:56;14.90;66.50
47338;DHT22;33069;51.970;5.892;2022-11-03T14:41:21;14.90;67.00
47338;DHT22;33069;51.970;5.892;2022-11-03T14:44:05;14.80;67.20
47338;DHT22;33069;51.970;5.892;2022-11-03T14:46:31;14.80;67.60
47338;DHT22;33069;51.970;5.892;2022-11-03T14:48:57;14.60;68.30
47338;DHT22;33069;51.970;5.892;2022-11-03T14:51:25;14.50;68.30
47338;DHT22;33069;51.970;5.892;2022-11-03T14:53:51;14.40;68.70
47338;DHT22;33069;51.970;5.892;2022-11-03T14:56:16;14.40;69.00
47338;DHT22;33069;51.970;5.892;2022-11-03T14:58:42;14.30;69.20
47338;DHT22;33069;51.970;5.892;2022-11-03T15:01:08;14.40;69.60
47338;DHT22;33069;51.970;5.892;2022-11-03T15:03:34;14.40;69.30
47338;DHT22;33069;51.970;5.892;2022-11-03T15:06:00;14.30;69.60
47338;DHT22;33069;51.970;5.892;2022-11-03T15:08:25;14.20;70.40
47338;DHT22;33069;51.970;5.892;2022-11-03T15:10:54;14.10;71.50
47338;DHT22;33069;51.970;5.892;2022-11-03T15:13:19;14.00;73.10
47338;DHT22;33069;51.970;5.892;2022-11-03T15:15:45;13.80;74.40
47338;DHT22;33069;51.970;5.892;2022-11-03T15:18:11;13.80;74.90
47338;DHT22;33069;51.970;5.892;2022-11-03T15:20:36;13.70;75.90
47338;DHT22;33069;51.970;5.892;2022-11-03T15:23:03;13.50;76.60
47338;DHT22;33069;51.970;5.892;2022-11-03T15:25:30;13.50;77.30
47338;DHT22;33069;51.970;5.892;2022-11-03T15:27:56;13.40;78.20
47338;DHT22;33069;51.970;5.892;2022-11-03T15:30:22;13.30;78.70
47338;DHT22;33069;51.970;5.892;2022-11-03T15:32:48;13.20;79.30
47338;DHT22;33069;51.970;5.892;2022-11-03T15:35:14;13.10;79.90
47338;DHT22;33069;51.970;5.892;2022-11-03T15:37:40;13.30;79.90
47338;DHT22;33069;51.970;5.892;2022-11-03T15:40:08;13.10;80.20
47338;DHT22;33069;51.970;5.892;2022-11-03T15:42:35;13.00;80.30
47338;DHT22;33069;51.970;5.892;2022-11-03T15:45:01;13.10;80.70
47338;DHT22;33069;51.970;5.892;2022-11-03T15:47:27;13.10;81.00
47338;DHT22;33069;51.970;5.892;2022-11-03T15:49:52;12.90;81.20
47338;DHT22;33069;51.970;5.892;2022-11-03T15:52:18;12.80;81.70
47338;DHT22;33069;51.970;5.892;2022-11-03T15:54:44;12.90;81.90
47338;DHT22;33069;51.970;5.892;2022-11-03T15:57:09;12.80;82.10
47338;DHT22;33069;51.970;5.892;2022-11-03T15:59:35;12.90;82.40
47338;DHT22;33069;51.970;5.892;2022-11-03T16:02:01;12.80;82.50
47338;DHT22;33069;51.970;5.892;2022-11-03T16:04:27;12.80;82.50
47338;DHT22;33069;51.970;5.892;2022-11-03T16:06:52;12.80;82.80
47338;DHT22;33069;51.970;5.892;2022-11-03T16:09:18;12.70;82.90
47338;DHT22;33069;51.970;5.892;2022-11-03T16:11:44;12.70;82.90
47338;DHT22;33069;51.970;5.892;2022-11-03T16:14:09;12.70;82.80
47338;DHT22;33069;51.970;5.892;2022-11-03T16:16:35;12.70;82.80
47338;DHT22;33069;51.970;5.892;2022-11-03T16:19:01;12.70;82.70
47338;DHT22;33069;51.970;5.892;2022-11-03T16:21:26;12.60;82.60
47338;DHT22;33069;51.970;5.892;2022-11-03T16:23:53;12.50;82.80
47338;DHT22;33069;51.970;5.892;2022-11-03T16:26:19;12.60;82.80
47338;DHT22;33069;51.970;5.892;2022-11-03T16:28:48;12.60;83.00
47338;DHT22;33069;51.970;5.892;2022-11-03T16:31:14;12.60;82.90
47338;DHT22;33069;51.970;5.892;2022-11-03T16:33:40;12.60;82.80
47338;DHT22;33069;51.970;5.892;2022-11-03T16:36:06;12.50;83.00
47338;DHT22;33069;51.970;5.892;2022-11-03T16:38:32;12.50;82.80
47338;DHT22;33069;51.970;5.892;2022-11-03T16:40:57;12.70;82.90
47338;DHT22;33069;51.970;5.892;2022-11-03T16:43:23;12.60;82.60
47338;DHT22;33069;51.970;5.892;2022-11-03T16:45:49;12.50;82.70
47338;DHT22;33069;51.970;5.892;2022-11-03T16:48:14;12.50;82.90
47338;DHT22;33069;51.970;5.892;2022-11-03T16:50:40;12.50;83.00
47338;DHT22;33069;51.970;5.892;2022-11-03T16:53:06;12.50;82.90